Greensboro, NC (27407)

2:01 AM EST on December 06, 2016 (GMT -0500)
SW Greensboro | | Change Station

Elev 870 ft 36.04 °N, 79.87 °W | Updated 13 seconds ago

Light Rain
Light Rain
46.5 °F
Feels Like 46 °F
N
2.0
Wind Variable Wind from SSE
Gusts 7.0 mph

Today
High -- | Low -- °F
--% Chance of Precip.
Yesterday
High -- | Low -- °F
Precip. -- in
Pressure 30.01 in
Visibility 10.0 miles
Clouds Scattered Clouds 2000 ft
Mostly Cloudy 8000 ft
Overcast 10000 ft
Windchill 46 °F
Dew Point 44 °F
Humidity 91%
Rainfall 0.07 in
Snow Depth Not available.
7:16 AM 5:05 PM
Waxing Crescent, 39% visible
METAR KGSO 060654Z 09009KT 10SM -RA SCT020 BKN080 OVC100 08/07 A3002 RMK AO2 SLP162 P0002 T00830072
Pressure 30.01 in
Visibility 10.0 miles
Clouds Scattered Clouds 2000 ft
Mostly Cloudy 8000 ft
Overcast 10000 ft
Windchill 46 °F
Dew Point 44 °F
Humidity 91%
Rainfall 0.07 in
Snow Depth Not available.
7:16 AM 5:05 PM
Waxing Crescent, 39% visible
METAR KGSO 060654Z 09009KT 10SM -RA SCT020 BKN080 OVC100 08/07 A3002 RMK AO2 SLP162 P0002 T00830072

10-Day Weather Forecast

Almanac

Astronomy

Dec. 06, 2016 Rise Set
Actual Time
Civil Twilight
Nautical Twilight
Astronomical Twilight
Moon
Length of Visible Light
Length of Day
Tomorrow will be .
, % of the Moon is Illuminated

Today's Extremes

State Highs State Lows

Community

WunderPhotos

Upload Photos

1,955,930 photos uploaded!

WunderBlog® & News

Nearby

Air Quality

  Air Quality AQ Index Pollutant
Not available.

Snow Depth

Station Depth Elevation

Earthquake Activity

City Distance Mag. Time & Date
Minimum magnitude displayed is 2.5.

Coastal Water Temperatures

Place Temperature

Stations

Nearby Weather Stations

Station Location Temp. Windchill Dew Point Humidity Wind Precip. Elev Updated Type
                   

Watches & Warnings

There are currently no watches in effect.